createdAt,value
2023-01-22T00:01:32.285Z,50.50
2023-01-22T00:04:00.561Z,50.94
2023-01-22T00:06:29.139Z,51.59
2023-01-22T00:09:03.967Z,51.91
2023-01-22T00:11:32.646Z,49.98
2023-01-22T00:14:00.886Z,51.20
2023-01-22T00:16:29.404Z,51.60
2023-01-22T00:18:57.530Z,51.59
2023-01-22T00:21:27.852Z,53.70
2023-01-22T00:23:56.358Z,52.98
2023-01-22T00:26:26.286Z,52.53
2023-01-22T00:28:54.932Z,51.63
2023-01-22T00:31:24.328Z,51.31
2023-01-22T00:33:53.412Z,50.65
2023-01-22T00:36:23.656Z,50.40
2023-01-22T00:38:52.544Z,51.18
2023-01-22T00:41:21.502Z,51.45
2023-01-22T00:43:52.984Z,51.35
2023-01-22T00:46:21.969Z,52.18
2023-01-22T00:48:51.274Z,50.70
2023-01-22T00:51:22.000Z,51.85
2023-01-22T00:53:50.787Z,52.16
2023-01-22T00:56:18.949Z,51.53
2023-01-22T00:58:51.770Z,51.45
2023-01-22T01:01:20.442Z,51.51
2023-01-22T01:03:48.647Z,52.06
2023-01-22T01:06:19.966Z,51.42
2023-01-22T01:08:50.081Z,53.03
2023-01-22T01:11:22.069Z,53.36
2023-01-22T01:13:53.354Z,51.33
2023-01-22T01:16:26.747Z,52.01
2023-01-22T01:18:59.034Z,53.24
2023-01-22T01:21:28.184Z,53.63
2023-01-22T01:23:56.850Z,52.91
2023-01-22T01:26:25.714Z,53.14
2023-01-22T01:28:55.531Z,52.60
2023-01-22T01:31:26.443Z,52.07
2023-01-22T01:33:58.446Z,51.80
2023-01-22T01:36:47.175Z,52.82
2023-01-22T01:39:15.890Z,53.62
2023-01-22T01:41:44.477Z,53.83
2023-01-22T01:44:17.253Z,53.71
2023-01-22T01:46:49.914Z,54.66
2023-01-22T01:49:24.458Z,52.58
2023-01-22T01:51:56.260Z,52.53
2023-01-22T01:54:25.031Z,52.98
2023-01-22T01:56:58.804Z,53.72
2023-01-22T01:59:30.835Z,53.92
2023-01-22T02:01:59.489Z,53.63
2023-01-22T02:04:29.416Z,53.92
2023-01-22T02:06:57.892Z,53.98
2023-01-22T02:09:28.458Z,53.40
2023-01-22T02:11:57.105Z,54.16
2023-01-22T02:14:35.208Z,54.55
2023-01-22T02:17:08.328Z,54.89
2023-01-22T02:19:36.995Z,55.54
2023-01-22T02:22:12.465Z,55.66
2023-01-22T02:24:42.999Z,54.90
2023-01-22T02:27:12.134Z,54.23
2023-01-22T02:29:41.488Z,54.77
2023-01-22T02:32:12.299Z,53.67
2023-01-22T02:34:41.037Z,55.12
2023-01-22T02:37:12.678Z,54.46
2023-01-22T02:39:41.581Z,54.89
2023-01-22T02:42:10.532Z,55.02
2023-01-22T02:44:40.163Z,55.01
2023-01-22T02:47:08.813Z,54.66
2023-01-22T02:49:37.387Z,56.00
2023-01-22T02:52:05.952Z,55.99
2023-01-22T02:54:37.793Z,56.33
2023-01-22T02:57:06.336Z,55.36
2023-01-22T02:59:35.546Z,54.38
2023-01-22T03:02:03.929Z,54.19
2023-01-22T03:04:32.242Z,53.91
2023-01-22T03:07:00.723Z,54.39
2023-01-22T03:09:30.127Z,53.68
2023-01-22T03:12:00.597Z,52.63
2023-01-22T03:14:51.087Z,53.68
2023-01-22T03:17:37.806Z,55.08
2023-01-22T03:20:25.020Z,56.06
2023-01-22T03:22:55.088Z,57.00
2023-01-22T03:25:23.551Z,55.63
2023-01-22T03:28:16.737Z,57.25
2023-01-22T03:30:50.922Z,56.98
2023-01-22T03:33:19.140Z,57.20
2023-01-22T03:35:50.402Z,56.95
2023-01-22T03:38:21.999Z,56.52
2023-01-22T03:40:50.543Z,55.91
2023-01-22T03:43:22.193Z,53.96
2023-01-22T03:45:56.770Z,55.69
2023-01-22T03:48:27.813Z,56.65
2023-01-22T03:50:56.140Z,56.88
2023-01-22T03:53:24.479Z,55.52
2023-01-22T03:56:00.327Z,57.54
2023-01-22T03:58:32.609Z,58.29
2023-01-22T04:01:03.486Z,57.19
2023-01-22T04:03:35.227Z,56.31
2023-01-22T04:06:09.265Z,57.69
2023-01-22T04:08:42.945Z,56.91
2023-01-22T04:11:12.168Z,55.07
2023-01-22T04:13:44.687Z,56.61
2023-01-22T04:16:14.563Z,58.52
2023-01-22T04:19:01.314Z,57.30
2023-01-22T04:21:49.840Z,56.82
2023-01-22T04:24:20.044Z,58.08
2023-01-22T04:26:50.377Z,57.73
2023-01-22T04:29:22.760Z,56.90
2023-01-22T04:31:51.464Z,57.28
2023-01-22T04:34:21.529Z,57.64
2023-01-22T04:37:02.195Z,57.39
2023-01-22T04:39:33.834Z,56.81
2023-01-22T04:42:02.109Z,56.27
2023-01-22T04:44:31.906Z,57.29
2023-01-22T04:47:00.901Z,58.30
2023-01-22T04:49:29.662Z,56.76
2023-01-22T04:51:58.347Z,58.25
2023-01-22T04:54:27.920Z,57.67
2023-01-22T04:56:56.677Z,59.78
2023-01-22T04:59:25.655Z,60.27
2023-01-22T05:01:56.062Z,58.89
2023-01-22T05:04:24.926Z,59.55
2023-01-22T05:06:55.982Z,59.25
2023-01-22T05:09:25.809Z,59.96
2023-01-22T05:11:59.976Z,59.30
2023-01-22T05:14:33.446Z,58.47
2023-01-22T05:17:06.398Z,59.38
2023-01-22T05:19:36.207Z,59.55
2023-01-22T05:22:09.515Z,59.55
2023-01-22T05:24:38.719Z,59.36
2023-01-22T05:27:06.997Z,59.28
2023-01-22T05:29:43.055Z,58.64
2023-01-22T05:32:35.205Z,58.69
2023-01-22T05:35:05.405Z,60.10
2023-01-22T05:37:39.185Z,59.97
2023-01-22T05:40:09.825Z,59.62
2023-01-22T05:42:38.362Z,60.27
2023-01-22T05:45:10.423Z,59.39
2023-01-22T05:47:53.112Z,58.56
2023-01-22T05:50:36.778Z,57.74
2023-01-22T05:53:11.740Z,58.23
2023-01-22T05:55:40.353Z,59.35
2023-01-22T05:58:09.795Z,59.27
2023-01-22T06:00:40.537Z,59.04
2023-01-22T06:03:15.531Z,58.73
2023-01-22T06:05:49.330Z,58.47
2023-01-22T06:08:17.827Z,58.48
2023-01-22T06:10:52.004Z,58.16
2023-01-22T06:13:20.969Z,57.60
2023-01-22T06:15:56.901Z,58.59
2023-01-22T06:18:46.956Z,57.32
2023-01-22T06:21:17.460Z,57.48
2023-01-22T06:23:46.856Z,58.97
2023-01-22T06:26:15.534Z,58.83
2023-01-22T06:28:45.336Z,57.63
2023-01-22T06:31:16.604Z,57.40
2023-01-22T06:33:50.483Z,57.17
2023-01-22T06:36:21.401Z,58.75
2023-01-22T06:38:54.504Z,58.76
2023-01-22T06:41:41.945Z,59.07
2023-01-22T06:44:14.523Z,58.28
2023-01-22T06:46:44.021Z,57.39
2023-01-22T06:49:21.697Z,56.12
2023-01-22T06:51:52.064Z,57.08
2023-01-22T06:54:21.074Z,58.19
2023-01-22T06:56:49.599Z,57.48
2023-01-22T06:59:22.152Z,57.64
2023-01-22T07:01:50.622Z,57.88
2023-01-22T07:04:20.443Z,58.18
2023-01-22T07:06:53.219Z,59.27
2023-01-22T07:09:30.117Z,58.80
2023-01-22T07:12:01.177Z,57.57
2023-01-22T07:14:36.740Z,59.38
2023-01-22T07:17:07.378Z,59.43
2023-01-22T07:19:37.413Z,58.33
2023-01-22T07:22:06.055Z,59.25
2023-01-22T07:24:34.750Z,58.02
2023-01-22T07:27:03.818Z,56.76
2023-01-22T07:29:32.299Z,55.87
2023-01-22T07:32:00.990Z,55.27
2023-01-22T07:34:30.304Z,56.46
2023-01-22T07:37:04.123Z,58.36
2023-01-22T07:39:32.791Z,58.91
2023-01-22T07:42:01.613Z,58.20
2023-01-22T07:44:32.440Z,55.94
2023-01-22T07:47:01.098Z,54.71
2023-01-22T07:49:30.832Z,54.47
2023-01-22T07:52:00.916Z,55.41
2023-01-22T07:54:36.734Z,56.41
2023-01-22T07:57:05.905Z,54.97
2023-01-22T07:59:34.492Z,56.41
2023-01-22T08:02:03.716Z,55.99
2023-01-22T08:04:35.419Z,55.23
2023-01-22T08:07:05.354Z,57.87
2023-01-22T08:09:34.073Z,59.14
2023-01-22T08:12:02.246Z,57.67
2023-01-22T08:14:30.986Z,58.57
2023-01-22T08:16:59.593Z,56.36
2023-01-22T08:19:32.492Z,53.91
2023-01-22T08:22:01.079Z,54.11
2023-01-22T08:24:31.852Z,55.58
2023-01-22T08:27:00.422Z,54.45
2023-01-22T08:29:28.699Z,56.44
2023-01-22T08:31:57.445Z,56.26
2023-01-22T08:34:26.491Z,55.87
2023-01-22T08:36:55.139Z,57.61
2023-01-22T08:39:27.006Z,56.02
2023-01-22T08:42:06.182Z,54.88
2023-01-22T08:44:34.837Z,54.94
2023-01-22T08:47:03.457Z,56.69
2023-01-22T08:49:32.303Z,57.93
2023-01-22T08:52:03.940Z,57.27
2023-01-22T08:54:38.487Z,55.29
2023-01-22T08:57:08.668Z,55.81
2023-01-22T08:59:37.287Z,57.00
2023-01-22T09:02:05.964Z,55.29
2023-01-22T09:04:35.146Z,54.48
2023-01-22T09:07:03.633Z,54.65
2023-01-22T09:09:32.153Z,54.72
2023-01-22T09:12:00.670Z,53.03
2023-01-22T09:14:30.651Z,54.96
2023-01-22T09:16:59.110Z,55.93
2023-01-22T09:19:27.656Z,55.35
2023-01-22T09:21:56.127Z,55.87
2023-01-22T09:24:24.561Z,55.58
2023-01-22T09:26:52.983Z,57.17
2023-01-22T09:29:21.531Z,55.99
2023-01-22T09:31:51.466Z,56.29
2023-01-22T09:34:20.208Z,56.48
2023-01-22T09:36:48.667Z,56.51
2023-01-22T09:39:17.155Z,58.64
2023-01-22T09:41:50.741Z,58.61
2023-01-22T09:44:23.843Z,56.07
2023-01-22T09:46:58.100Z,55.19
2023-01-22T09:49:33.038Z,56.12
2023-01-22T09:52:05.178Z,58.75
2023-01-22T09:54:35.199Z,57.52
2023-01-22T09:57:06.360Z,59.94
2023-01-22T09:59:44.735Z,57.81
2023-01-22T10:02:27.935Z,57.41
2023-01-22T10:05:04.063Z,56.80
2023-01-22T10:07:37.810Z,57.39
2023-01-22T10:10:25.675Z,58.44
2023-01-22T10:13:02.427Z,57.36
2023-01-22T10:15:31.041Z,58.41
2023-01-22T10:18:01.540Z,56.08
2023-01-22T10:20:30.227Z,55.82
2023-01-22T10:23:24.717Z,56.23
2023-01-22T10:26:00.327Z,58.83
2023-01-22T10:28:30.570Z,56.99
2023-01-22T10:30:59.870Z,56.36
2023-01-22T10:33:29.895Z,55.86
2023-01-22T10:35:58.568Z,54.75
2023-01-22T10:38:28.674Z,55.38
2023-01-22T10:40:59.959Z,57.45
2023-01-22T10:43:34.019Z,56.12
2023-01-22T10:46:07.547Z,56.63
2023-01-22T10:48:37.982Z,57.56
2023-01-22T10:51:16.264Z,56.96
2023-01-22T10:53:53.750Z,55.92
2023-01-22T10:56:31.228Z,54.96
2023-01-22T10:59:01.498Z,56.34
2023-01-22T11:01:34.419Z,53.92
2023-01-22T11:04:14.575Z,52.96
2023-01-22T11:06:48.775Z,53.00
2023-01-22T11:09:24.978Z,54.32
2023-01-22T11:12:03.521Z,54.29
2023-01-22T11:15:17.482Z,54.57
2023-01-22T11:17:52.830Z,53.27
2023-01-22T11:20:29.141Z,54.10
2023-01-22T11:23:23.052Z,54.24
2023-01-22T11:26:32.299Z,54.00
2023-01-22T11:29:57.183Z,56.01
2023-01-22T11:33:21.289Z,56.28
2023-01-22T11:36:14.327Z,54.46
2023-01-22T11:38:51.514Z,53.36
2023-01-22T11:41:34.582Z,54.53
2023-01-22T11:44:23.776Z,54.35
2023-01-22T11:47:04.557Z,55.05
2023-01-22T11:49:41.920Z,54.18
2023-01-22T11:52:26.818Z,53.45
2023-01-22T11:55:08.634Z,53.87
2023-01-22T11:57:41.429Z,54.58
2023-01-22T12:00:33.651Z,54.10
2023-01-22T12:03:28.702Z,54.51
2023-01-22T12:06:17.309Z,54.66
2023-01-22T12:09:00.527Z,54.66
2023-01-22T12:11:58.021Z,54.71
2023-01-22T12:14:46.089Z,55.00
2023-01-22T12:17:30.682Z,53.90
2023-01-22T12:20:21.661Z,53.77
2023-01-22T12:22:57.966Z,54.90
2023-01-22T12:25:37.863Z,55.80
2023-01-22T12:28:15.581Z,56.43
2023-01-22T12:30:53.404Z,57.53
2023-01-22T12:33:27.175Z,55.92
2023-01-22T12:36:01.780Z,55.27
2023-01-22T12:38:41.875Z,56.32
2023-01-22T12:41:46.733Z,56.21
2023-01-22T12:44:33.909Z,57.18
2023-01-22T12:47:11.447Z,56.33
2023-01-22T12:49:50.389Z,55.66
2023-01-22T12:52:34.556Z,56.41
2023-01-22T12:55:05.468Z,57.65
2023-01-22T12:57:43.221Z,57.47
2023-01-22T13:00:23.880Z,57.83
2023-01-22T13:02:53.293Z,58.14
2023-01-22T13:05:37.246Z,57.66
2023-01-22T13:08:08.377Z,57.67
2023-01-22T13:10:38.217Z,58.19
2023-01-22T13:13:23.484Z,58.84
2023-01-22T13:15:58.243Z,57.60
2023-01-22T13:18:30.948Z,56.07
2023-01-22T13:21:04.177Z,56.05
2023-01-22T13:23:35.237Z,56.34
2023-01-22T13:26:05.490Z,55.04
2023-01-22T13:28:38.173Z,56.88
2023-01-22T13:31:11.128Z,57.73
2023-01-22T13:33:39.822Z,56.42
2023-01-22T13:36:14.595Z,56.17
2023-01-22T13:38:43.170Z,57.50
2023-01-22T13:41:19.522Z,55.77
2023-01-22T13:43:49.691Z,58.19
2023-01-22T13:46:18.360Z,57.67
2023-01-22T13:48:46.654Z,58.26
2023-01-22T13:51:19.464Z,58.77
2023-01-22T13:53:53.061Z,57.79
2023-01-22T13:56:27.995Z,57.55
2023-01-22T13:59:19.710Z,57.27
2023-01-22T14:01:48.631Z,56.91
2023-01-22T14:04:28.950Z,56.63
2023-01-22T14:06:57.821Z,55.77
2023-01-22T14:09:28.165Z,56.15
2023-01-22T14:11:56.896Z,56.51
2023-01-22T14:14:26.601Z,56.03
2023-01-22T14:16:55.244Z,56.30
2023-01-22T14:19:23.756Z,58.00
2023-01-22T14:21:51.921Z,57.20
2023-01-22T14:24:20.324Z,57.12
2023-01-22T14:26:48.708Z,56.02
2023-01-22T14:29:17.139Z,56.70
2023-01-22T14:31:47.159Z,56.96
2023-01-22T14:34:15.736Z,57.08
2023-01-22T14:36:45.103Z,56.38
2023-01-22T14:39:13.655Z,57.05
2023-01-22T14:41:42.124Z,58.83
2023-01-22T14:44:11.089Z,58.00
2023-01-22T14:46:39.534Z,57.78
2023-01-22T14:49:09.444Z,57.28
2023-01-22T14:51:38.030Z,57.75
2023-01-22T14:54:06.348Z,56.79
2023-01-22T14:56:34.864Z,56.75
2023-01-22T14:59:04.708Z,57.21
2023-01-22T15:01:33.494Z,57.02
2023-01-22T15:04:06.390Z,57.60
2023-01-22T15:06:36.553Z,58.45
2023-01-22T15:09:05.505Z,57.46
2023-01-22T15:11:34.301Z,57.47
2023-01-22T15:14:05.423Z,58.23
2023-01-22T15:16:34.222Z,57.84
2023-01-22T15:19:03.144Z,56.82
2023-01-22T15:21:31.890Z,57.01
2023-01-22T15:24:02.429Z,57.19
2023-01-22T15:26:35.450Z,58.00
2023-01-22T15:29:05.799Z,57.89
2023-01-22T15:31:34.690Z,58.05
2023-01-22T15:34:04.267Z,58.63
2023-01-22T15:36:37.314Z,58.25
2023-01-22T15:39:07.492Z,58.23
2023-01-22T15:41:37.741Z,58.24
2023-01-22T15:44:07.330Z,58.10
2023-01-22T15:46:37.905Z,58.02
2023-01-22T15:49:08.286Z,57.55
2023-01-22T15:51:37.605Z,57.39
2023-01-22T15:54:16.270Z,57.37
2023-01-22T15:56:48.159Z,57.54
2023-01-22T15:59:16.643Z,57.48
2023-01-22T16:01:45.492Z,57.30
2023-01-22T16:04:14.070Z,57.38
2023-01-22T16:06:45.592Z,57.21
2023-01-22T16:09:15.710Z,58.72
2023-01-22T16:11:44.498Z,58.12
2023-01-22T16:14:12.776Z,57.78
2023-01-22T16:16:41.589Z,58.06
2023-01-22T16:19:13.431Z,58.97
2023-01-22T16:21:43.512Z,57.86
2023-01-22T16:24:15.460Z,57.66
2023-01-22T16:26:46.907Z,57.73
2023-01-22T16:29:15.874Z,57.43
2023-01-22T16:31:44.293Z,57.35
2023-01-22T16:34:16.624Z,56.10
2023-01-22T16:36:48.901Z,57.17
2023-01-22T16:39:22.307Z,57.26
2023-01-22T16:41:52.915Z,58.04
2023-01-22T16:44:26.492Z,58.52
2023-01-22T16:46:59.992Z,58.13
2023-01-22T16:49:30.769Z,58.03
2023-01-22T16:52:16.648Z,58.09
2023-01-22T16:54:52.168Z,57.31
2023-01-22T16:57:20.939Z,57.40
2023-01-22T16:59:49.608Z,56.83
2023-01-22T17:02:19.328Z,56.71
2023-01-22T17:04:50.226Z,56.59
2023-01-22T17:07:32.911Z,57.11
2023-01-22T17:10:08.031Z,57.13
2023-01-22T17:12:41.608Z,57.91
2023-01-22T17:15:11.283Z,57.62
2023-01-22T17:17:39.991Z,56.89
2023-01-22T17:20:11.034Z,56.27
2023-01-22T17:22:39.796Z,55.94
2023-01-22T17:25:09.971Z,55.63
2023-01-22T17:27:39.795Z,56.56
2023-01-22T17:30:16.425Z,56.41
2023-01-22T17:32:46.990Z,56.00
2023-01-22T17:35:17.160Z,57.39
2023-01-22T17:37:47.382Z,57.86
2023-01-22T17:40:19.534Z,58.62
2023-01-22T17:42:48.192Z,58.58
2023-01-22T17:45:40.254Z,58.43
2023-01-22T17:48:09.566Z,58.40
2023-01-22T17:50:41.266Z,58.16
2023-01-22T17:53:10.100Z,58.87
2023-01-22T17:55:40.513Z,58.59
2023-01-22T17:58:10.740Z,57.38
2023-01-22T18:00:39.596Z,58.02
2023-01-22T18:03:08.286Z,58.39
2023-01-22T18:05:37.195Z,58.69
2023-01-22T18:08:08.285Z,58.55
2023-01-22T18:10:43.598Z,58.21
2023-01-22T18:13:12.370Z,58.17
2023-01-22T18:15:43.155Z,57.59
2023-01-22T18:18:14.660Z,58.26
2023-01-22T18:20:44.860Z,59.26
2023-01-22T18:23:24.811Z,58.77
2023-01-22T18:25:58.311Z,59.24
2023-01-22T18:28:28.742Z,59.09
2023-01-22T18:30:57.562Z,59.02
2023-01-22T18:33:26.643Z,58.28
2023-01-22T18:36:22.145Z,57.50
2023-01-22T18:39:00.517Z,58.61
2023-01-22T18:41:30.990Z,57.32
2023-01-22T18:44:01.604Z,58.22
2023-01-22T18:46:33.498Z,59.66
2023-01-22T18:49:03.833Z,59.09
2023-01-22T18:51:37.066Z,59.29
2023-01-22T18:54:06.729Z,58.36
2023-01-22T18:56:42.302Z,59.90
2023-01-22T18:59:13.316Z,59.81
2023-01-22T19:01:43.729Z,58.97
2023-01-22T19:04:18.080Z,59.11
2023-01-22T19:06:54.535Z,60.41
2023-01-22T19:09:23.198Z,60.83
2023-01-22T19:11:53.209Z,61.06
2023-01-22T19:14:27.360Z,61.02
2023-01-22T19:16:55.961Z,60.80
2023-01-22T19:19:27.535Z,60.48
2023-01-22T19:21:58.142Z,61.01
2023-01-22T19:24:28.568Z,60.03
2023-01-22T19:26:59.150Z,60.63
2023-01-22T19:29:28.108Z,60.46
2023-01-22T19:31:59.548Z,61.34
2023-01-22T19:34:30.456Z,61.69
2023-01-22T19:37:02.751Z,60.46
2023-01-22T19:39:32.613Z,60.70
2023-01-22T19:42:05.337Z,61.29
2023-01-22T19:44:36.291Z,61.36
2023-01-22T19:47:05.225Z,61.26
2023-01-22T19:49:36.697Z,60.61
2023-01-22T19:52:05.707Z,60.79
2023-01-22T19:54:36.635Z,60.92
2023-01-22T19:57:06.770Z,63.79
2023-01-22T19:59:35.471Z,64.10
2023-01-22T20:02:04.057Z,63.10
2023-01-22T20:04:38.471Z,62.42
2023-01-22T20:07:07.376Z,61.64
2023-01-22T20:09:36.994Z,61.23
2023-01-22T20:12:09.261Z,61.27
2023-01-22T20:14:43.383Z,61.70
2023-01-22T20:17:14.006Z,61.32
2023-01-22T20:19:42.492Z,61.73
2023-01-22T20:22:17.005Z,61.06
2023-01-22T20:24:48.450Z,61.49
2023-01-22T20:27:18.426Z,62.20
2023-01-22T20:29:51.834Z,61.70
2023-01-22T20:32:20.703Z,62.11
2023-01-22T20:34:49.880Z,61.64
2023-01-22T20:37:18.421Z,61.20
2023-01-22T20:39:49.456Z,60.83
2023-01-22T20:42:19.631Z,61.46
2023-01-22T20:44:48.401Z,61.70
2023-01-22T20:47:16.651Z,62.18
2023-01-22T20:49:47.965Z,62.26
2023-01-22T20:52:17.820Z,62.08
2023-01-22T20:55:00.993Z,62.72
2023-01-22T20:57:33.965Z,61.85
2023-01-22T21:00:02.484Z,61.94
2023-01-22T21:02:33.790Z,62.32
2023-01-22T21:05:01.989Z,62.57
2023-01-22T21:07:30.719Z,62.17
2023-01-22T21:09:59.245Z,62.41
2023-01-22T21:12:28.457Z,61.71
2023-01-22T21:14:58.435Z,62.04
2023-01-22T21:17:28.239Z,62.72
2023-01-22T21:19:58.106Z,62.11
2023-01-22T21:22:29.549Z,61.74
2023-01-22T21:24:58.080Z,62.06
2023-01-22T21:27:26.672Z,63.19
2023-01-22T21:29:55.365Z,63.01
2023-01-22T21:32:46.367Z,62.34
2023-01-22T21:35:22.438Z,61.86
2023-01-22T21:37:51.103Z,61.77
2023-01-22T21:40:21.898Z,61.86
2023-01-22T21:43:08.400Z,62.57
2023-01-22T21:45:59.571Z,61.80
2023-01-22T21:48:30.561Z,61.15
2023-01-22T21:50:59.164Z,62.24
2023-01-22T21:53:27.639Z,61.59
2023-01-22T21:55:55.928Z,61.71
2023-01-22T21:58:24.381Z,63.70
2023-01-22T22:00:54.923Z,62.22
2023-01-22T22:03:23.672Z,63.42
2023-01-22T22:06:03.326Z,63.42
2023-01-22T22:08:32.007Z,63.00
2023-01-22T22:11:00.997Z,62.34
2023-01-22T22:13:33.101Z,62.17
2023-01-22T22:16:02.623Z,61.47
2023-01-22T22:18:31.103Z,62.04
2023-01-22T22:21:04.993Z,62.20
2023-01-22T22:23:35.331Z,62.23
2023-01-22T22:26:04.434Z,62.90
2023-01-22T22:28:33.533Z,62.10
2023-01-22T22:31:08.348Z,61.96
2023-01-22T22:33:36.945Z,62.68
2023-01-22T22:36:06.858Z,61.55
2023-01-22T22:38:37.925Z,62.33
2023-01-22T22:41:08.816Z,62.75
2023-01-22T22:43:41.073Z,62.40
2023-01-22T22:46:13.995Z,62.24
2023-01-22T22:48:42.705Z,62.81
2023-01-22T22:51:13.876Z,62.83
2023-01-22T22:53:43.129Z,63.44
2023-01-22T22:56:12.418Z,63.96
2023-01-22T22:58:41.655Z,63.44
2023-01-22T23:01:11.315Z,63.04
2023-01-22T23:03:41.006Z,63.19
2023-01-22T23:06:12.179Z,62.33
2023-01-22T23:08:52.816Z,62.40
2023-01-22T23:11:28.396Z,61.67
2023-01-22T23:14:01.512Z,61.64
2023-01-22T23:16:42.647Z,61.83
2023-01-22T23:19:15.704Z,61.97
2023-01-22T23:21:44.959Z,61.85
2023-01-22T23:24:15.600Z,61.62
2023-01-22T23:26:45.853Z,61.88
2023-01-22T23:29:17.254Z,61.74
2023-01-22T23:31:46.320Z,61.76
2023-01-22T23:34:18.277Z,60.75
2023-01-22T23:36:48.603Z,61.51
2023-01-22T23:39:23.306Z,61.23
2023-01-22T23:41:51.836Z,60.71
2023-01-22T23:44:20.358Z,61.57
2023-01-22T23:46:49.143Z,61.06
2023-01-22T23:49:17.632Z,60.46
2023-01-22T23:51:46.067Z,60.55
2023-01-22T23:54:14.494Z,59.51
2023-01-22T23:56:44.495Z,59.90
2023-01-22T23:59:13.666Z,60.34
